Time;durP1;ratioP1;P1;durP2;ratioP2;P2;SDS_P1;SDS_P2;PMS_P1;PMS_P2;Temp;Humidity;BMP_temperature;BMP_pressure;BME280_temperature;BME280_humidity;BME280_pressure;Samples;Min_cycle;Max_cycle;Signal;HPM_P1;HPM_P2
2022/04/01 00:01:32;;;;;;;18.42;5.47;;;;;;;;;;4451652;32;20576;-54
2022/04/01 00:03:57;;;;;;;24.90;5.90;;;;;;;;;;4459221;32;20578;-55
2022/04/01 00:06:23;;;;;;;37.60;7.47;;;;;;;;;;4453554;32;20200;-55
2022/04/01 00:08:48;;;;;;;46.23;6.87;;;;;;;;;;4452250;32;20765;-55
2022/04/01 00:11:14;;;;;;;28.33;7.33;;;;;;;;;;4449755;32;20347;-54
2022/04/01 00:13:40;;;;;;;22.40;5.83;;;;;;;;;;4449561;32;20251;-55
2022/04/01 00:16:05;;;;;;;18.73;5.80;;;;;;;;;;4452680;32;20319;-57
2022/04/01 00:18:30;;;;;;;30.85;6.68;;;;;;;;;;4453610;32;20251;-55
2022/04/01 00:20:56;;;;;;;38.83;8.23;;;;;;;;;;4456980;32;20771;-55
2022/04/01 00:23:21;;;;;;;25.77;5.40;;;;;;;;;;4456160;32;20224;-56
2022/04/01 00:25:47;;;;;;;32.20;7.22;;;;;;;;;;4455995;32;20343;-55
2022/04/01 00:28:12;;;;;;;37.53;7.37;;;;;;;;;;4450639;32;20385;-54
2022/04/01 00:30:41;;;;;;;30.53;7.63;;;;;;;;;;4449743;32;20271;-55
2022/04/01 00:33:08;;;;;;;37.37;6.70;;;;;;;;;;4450380;32;20225;-55
2022/04/01 00:35:35;;;;;;;34.17;7.20;;;;;;;;;;4449754;32;20252;-55
2022/04/01 00:38:01;;;;;;;27.87;6.23;;;;;;;;;;4457520;32;20383;-55
2022/04/01 00:40:26;;;;;;;30.53;7.23;;;;;;;;;;4449512;32;20290;-56
2022/04/01 00:42:51;;;;;;;30.13;8.23;;;;;;;;;;4453106;32;20296;-55
2022/04/01 00:45:17;;;;;;;29.23;8.47;;;;;;;;;;4451831;32;20587;-57
2022/04/01 00:47:43;;;;;;;24.92;6.75;;;;;;;;;;4444963;32;20236;-56
2022/04/01 00:50:09;;;;;;;26.17;8.17;;;;;;;;;;4444797;32;20354;-56
2022/04/01 00:52:36;;;;;;;27.53;6.60;;;;;;;;;;4449221;32;20217;-56
2022/04/01 00:55:03;;;;;;;30.70;8.17;;;;;;;;;;4453371;32;20266;-58
2022/04/01 00:57:30;;;;;;;27.13;6.70;;;;;;;;;;4450441;32;20323;-57
2022/04/01 00:59:56;;;;;;;28.00;6.60;;;;;;;;;;4456616;32;20286;-56
2022/04/01 01:02:21;;;;;;;31.03;8.43;;;;;;;;;;4463805;32;20237;-58
2022/04/01 01:04:47;;;;;;;38.07;7.13;;;;;;;;;;4454042;32;20703;-59
2022/04/01 01:07:14;;;;;;;20.87;5.87;;;;;;;;;;4454005;32;20288;-57
2022/04/01 01:09:39;;;;;;;21.40;7.73;;;;;;;;;;4460696;32;20208;-56
2022/04/01 01:12:06;;;;;;;25.87;6.57;;;;;;;;;;4456628;32;20345;-56
2022/04/01 01:14:34;;;;;;;39.07;6.40;;;;;;;;;;4447319;32;20236;-57
2022/04/01 01:17:01;;;;;;;31.30;7.00;;;;;;;;;;4450949;32;20391;-56
2022/04/01 01:19:28;;;;;;;43.73;8.27;;;;;;;;;;4451875;32;20252;-56
2022/04/01 01:21:55;;;;;;;44.20;8.10;;;;;;;;;;4447565;32;20332;-55
2022/04/01 01:24:39;;;;;;;39.00;7.80;;;;;;;;;;4447783;32;20280;-55
2022/04/01 01:27:06;;;;;;;23.17;7.93;;;;;;;;;;4451347;32;20232;-55
2022/04/01 01:29:33;;;;;;;40.87;9.00;;;;;;;;;;4448906;32;20263;-57
2022/04/01 01:32:02;;;;;;;34.20;7.30;;;;;;;;;;4450129;32;20228;-58
2022/04/01 01:34:32;;;;;;;28.67;8.20;;;;;;;;;;4453368;32;20370;-56
2022/04/01 01:36:58;;;;;;;28.63;7.20;;;;;;;;;;4462565;32;20259;-56
2022/04/01 01:39:24;;;;;;;29.40;7.33;;;;;;;;;;4460563;32;20208;-57
2022/04/01 01:41:51;;;;;;;28.70;6.60;;;;;;;;;;4457497;32;20299;-57
2022/04/01 01:44:21;;;;;;;40.23;7.23;;;;;;;;;;4450920;32;20235;-57
2022/04/01 01:46:47;;;;;;;44.83;9.63;;;;;;;;;;4458884;32;20216;-56
2022/04/01 01:49:13;;;;;;;34.77;8.97;;;;;;;;;;4448967;32;20240;-56
2022/04/01 01:54:43;;;;;;;47.30;12.87;;;;;;;;;;4455875;32;20290;-56
2022/04/01 01:57:10;;;;;;;38.73;9.77;;;;;;;;;;4461024;32;20330;-55
2022/04/01 01:59:36;;;;;;;49.43;9.80;;;;;;;;;;4452429;32;20302;-56
2022/04/01 02:02:05;;;;;;;31.80;7.37;;;;;;;;;;4454814;32;20242;-56
2022/04/01 02:04:32;;;;;;;39.93;8.00;;;;;;;;;;4449098;32;20322;-57
2022/04/01 02:06:58;;;;;;;37.73;8.60;;;;;;;;;;4451707;32;20231;-57
2022/04/01 02:09:23;;;;;;;23.83;6.03;;;;;;;;;;4452323;32;20568;-55
2022/04/01 02:11:49;;;;;;;17.90;6.80;;;;;;;;;;4446667;32;20672;-57
2022/04/01 02:14:14;;;;;;;28.77;8.53;;;;;;;;;;4457432;32;20228;-56
2022/04/01 02:16:43;;;;;;;38.30;7.33;;;;;;;;;;4460056;32;20352;-57
2022/04/01 02:19:09;;;;;;;35.47;6.97;;;;;;;;;;4460011;32;20386;-57
2022/04/01 02:21:34;;;;;;;41.33;7.93;;;;;;;;;;4454490;32;20205;-56
2022/04/01 02:24:00;;;;;;;37.07;7.40;;;;;;;;;;4448866;32;20326;-57
2022/04/01 02:26:25;;;;;;;30.60;7.27;;;;;;;;;;4454637;32;20266;-57
2022/04/01 02:28:51;;;;;;;26.77;8.27;;;;;;;;;;4450048;32;20228;-56
2022/04/01 02:31:18;;;;;;;37.77;8.77;;;;;;;;;;4447551;32;20299;-57
2022/04/01 02:33:43;;;;;;;39.87;8.73;;;;;;;;;;4455833;32;20397;-56
2022/04/01 02:36:12;;;;;;;36.33;8.50;;;;;;;;;;4458811;32;20355;-57
2022/04/01 02:38:40;;;;;;;47.47;9.67;;;;;;;;;;4454156;32;20313;-54
2022/04/01 02:41:07;;;;;;;43.33;9.23;;;;;;;;;;4454779;32;20632;-55
2022/04/01 02:43:33;;;;;;;45.13;8.63;;;;;;;;;;4447732;32;20219;-55
2022/04/01 02:45:58;;;;;;;31.23;7.97;;;;;;;;;;4456269;32;20778;-55
2022/04/01 02:48:24;;;;;;;31.80;8.90;;;;;;;;;;4450215;32;20243;-56
2022/04/01 02:50:49;;;;;;;46.37;8.63;;;;;;;;;;4455168;32;20573;-56
2022/04/01 02:53:16;;;;;;;41.23;8.63;;;;;;;;;;4454729;32;20318;-56
2022/04/01 02:55:43;;;;;;;31.60;7.43;;;;;;;;;;4456681;32;20970;-57
2022/04/01 02:58:09;;;;;;;41.90;8.87;;;;;;;;;;4455127;32;20291;-56
2022/04/01 03:00:39;;;;;;;46.27;9.00;;;;;;;;;;4461148;32;20289;-57
2022/04/01 03:03:06;;;;;;;44.90;10.13;;;;;;;;;;4449756;32;20251;-56
2022/04/01 03:05:45;;;;;;;33.93;6.77;;;;;;;;;;4450086;32;20297;-56
2022/04/01 03:08:11;;;;;;;44.77;8.93;;;;;;;;;;4454355;32;20371;-56
2022/04/01 03:10:39;;;;;;;31.97;7.63;;;;;;;;;;4456146;32;20342;-56
2022/04/01 03:13:07;;;;;;;35.93;8.17;;;;;;;;;;4447271;32;20711;-57
2022/04/01 03:15:33;;;;;;;58.73;8.90;;;;;;;;;;4452746;32;20213;-57
2022/04/01 03:17:59;;;;;;;40.30;8.10;;;;;;;;;;4460610;32;20526;-56
2022/04/01 03:20:26;;;;;;;35.17;8.17;;;;;;;;;;4452514;32;20309;-56
2022/04/01 03:22:52;;;;;;;51.00;9.47;;;;;;;;;;4455565;32;20669;-56
2022/04/01 03:25:19;;;;;;;33.77;8.10;;;;;;;;;;4456367;32;20279;-56
2022/04/01 03:27:45;;;;;;;49.77;8.93;;;;;;;;;;4449367;32;20744;-55
2022/04/01 03:30:12;;;;;;;31.50;8.17;;;;;;;;;;4448884;32;20322;-56
2022/04/01 03:32:38;;;;;;;37.93;7.80;;;;;;;;;;4455067;32;20259;-55
2022/04/01 03:35:07;;;;;;;30.77;7.27;;;;;;;;;;4451070;32;20212;-56
2022/04/01 03:37:33;;;;;;;32.07;7.83;;;;;;;;;;4453204;32;20221;-56
2022/04/01 03:40:00;;;;;;;37.60;8.27;;;;;;;;;;4454017;32;20511;-56
2022/04/01 03:42:31;;;;;;;38.23;9.50;;;;;;;;;;4453814;32;20351;-55
2022/04/01 03:45:06;;;;;;;23.07;7.57;;;;;;;;;;4452198;32;20213;-56
2022/04/01 03:47:40;;;;;;;40.50;8.27;;;;;;;;;;4449336;32;20704;-57
2022/04/01 03:50:09;;;;;;;36.73;7.83;;;;;;;;;;4453751;32;20326;-56
2022/04/01 03:52:35;;;;;;;45.00;9.10;;;;;;;;;;4454624;32;20266;-56
2022/04/01 03:55:06;;;;;;;32.10;9.57;;;;;;;;;;4447327;32;20395;-56
2022/04/01 03:57:40;;;;;;;46.57;8.73;;;;;;;;;;4448864;32;20262;-56
2022/04/01 04:00:08;;;;;;;28.00;8.37;;;;;;;;;;4454941;32;20666;-55
2022/04/01 04:02:34;;;;;;;28.87;8.47;;;;;;;;;;4448921;32;20687;-56
2022/04/01 04:05:02;;;;;;;37.13;8.50;;;;;;;;;;4453491;32;20258;-55
2022/04/01 04:07:30;;;;;;;37.60;8.20;;;;;;;;;;4453088;32;21373;-54
2022/04/01 04:09:57;;;;;;;37.30;9.90;;;;;;;;;;4445924;32;20325;-56
2022/04/01 04:12:23;;;;;;;35.23;8.47;;;;;;;;;;4450460;32;20662;-57
2022/04/01 04:14:53;;;;;;;42.53;9.60;;;;;;;;;;4447776;32;20324;-55
2022/04/01 04:17:30;;;;;;;37.50;10.13;;;;;;;;;;4454909;32;20229;-54
2022/04/01 04:19:58;;;;;;;37.20;8.57;;;;;;;;;;4455474;32;20276;-55
2022/04/01 04:22:40;;;;;;;36.00;11.23;;;;;;;;;;4457991;32;20220;-55
2022/04/01 04:25:14;;;;;;;36.60;9.87;;;;;;;;;;4460832;32;20695;-54
2022/04/01 04:27:51;;;;;;;40.83;9.83;;;;;;;;;;4447229;32;20232;-55
2022/04/01 04:30:17;;;;;;;55.93;9.67;;;;;;;;;;4455158;32;20526;-55
2022/04/01 04:32:51;;;;;;;39.70;8.90;;;;;;;;;;4450296;32;20321;-55
2022/04/01 04:35:20;;;;;;;46.43;8.73;;;;;;;;;;4445275;32;20271;-56
2022/04/01 04:37:47;;;;;;;40.37;9.47;;;;;;;;;;4459268;32;20360;-55
2022/04/01 04:40:17;;;;;;;52.00;9.27;;;;;;;;;;4455571;32;20367;-57
2022/04/01 04:42:50;;;;;;;28.20;8.43;;;;;;;;;;4456338;32;20231;-55
2022/04/01 04:45:20;;;;;;;42.40;8.40;;;;;;;;;;4448486;32;20288;-54
2022/04/01 04:47:46;;;;;;;40.80;10.83;;;;;;;;;;4460822;32;20820;-55
2022/04/01 04:50:12;;;;;;;35.17;10.23;;;;;;;;;;4452462;32;20354;-55
2022/04/01 04:52:39;;;;;;;49.07;10.83;;;;;;;;;;4450618;32;20239;-54
2022/04/01 04:55:10;;;;;;;52.23;9.53;;;;;;;;;;4456946;32;20204;-55
2022/04/01 04:57:38;;;;;;;50.35;10.73;;;;;;;;;;4455505;32;20338;-54
2022/04/01 05:00:05;;;;;;;42.87;9.70;;;;;;;;;;4452645;32;20419;-55
2022/04/01 05:02:49;;;;;;;28.17;8.50;;;;;;;;;;4455877;32;20370;-55
2022/04/01 05:05:27;;;;;;;43.27;11.63;;;;;;;;;;4456061;32;20606;-55
2022/04/01 05:08:07;;;;;;;36.30;8.73;;;;;;;;;;4448774;32;20777;-55
2022/04/01 05:10:55;;;;;;;57.63;10.00;;;;;;;;;;4448322;32;20946;-54
2022/04/01 05:13:58;;;;;;;58.17;11.53;;;;;;;;;;4450219;32;20307;-56
2022/04/01 05:17:12;;;;;;;56.97;8.43;;;;;;;;;;4450265;32;20688;-56
2022/04/01 05:19:40;;;;;;;38.13;9.70;;;;;;;;;;4444268;32;20232;-55
2022/04/01 05:22:09;;;;;;;32.83;10.57;;;;;;;;;;4448812;32;20750;-55
2022/04/01 05:24:38;;;;;;;36.23;8.20;;;;;;;;;;4454580;32;20240;-55
2022/04/01 05:27:06;;;;;;;50.43;8.83;;;;;;;;;;4452772;32;20351;-54
2022/04/01 05:29:37;;;;;;;48.37;9.83;;;;;;;;;;4454814;32;20587;-57
2022/04/01 05:32:07;;;;;;;43.27;10.93;;;;;;;;;;4460489;32;20204;-55
2022/04/01 05:35:00;;;;;;;50.97;10.40;;;;;;;;;;4446194;32;20747;-55
2022/04/01 05:37:28;;;;;;;51.90;12.00;;;;;;;;;;4452435;32;20341;-55
2022/04/01 05:39:54;;;;;;;41.70;10.43;;;;;;;;;;4454152;32;20232;-55
2022/04/01 05:42:22;;;;;;;45.88;10.15;;;;;;;;;;4448261;32;20263;-54
2022/04/01 05:44:48;;;;;;;58.70;10.07;;;;;;;;;;4453403;32;20258;-55
2022/04/01 05:47:15;;;;;;;41.20;9.40;;;;;;;;;;4458065;32;20680;-55
2022/04/01 05:49:43;;;;;;;53.30;8.75;;;;;;;;;;4450533;32;20901;-55
2022/04/01 05:52:09;;;;;;;57.05;11.10;;;;;;;;;;4456305;32;20196;-55
2022/04/01 05:54:37;;;;;;;46.47;8.90;;;;;;;;;;4454457;32;20610;-56
2022/04/01 05:57:03;;;;;;;45.20;10.70;;;;;;;;;;4457017;32;20209;-56
2022/04/01 05:59:28;;;;;;;56.47;11.33;;;;;;;;;;4448051;32;20462;-56
2022/04/01 06:02:18;;;;;;;50.25;10.82;;;;;;;;;;4449021;32;20279;-55
2022/04/01 06:04:56;;;;;;;49.00;9.13;;;;;;;;;;4458963;32;20251;-55
2022/04/01 06:07:30;;;;;;;50.97;12.03;;;;;;;;;;4457662;32;20549;-54
2022/04/01 06:10:17;;;;;;;52.10;11.47;;;;;;;;;;4460185;32;20545;-54
2022/04/01 06:13:04;;;;;;;56.93;12.10;;;;;;;;;;4452712;32;20354;-54
2022/04/01 06:15:41;;;;;;;66.23;10.87;;;;;;;;;;4453726;32;20211;-55
2022/04/01 06:18:22;;;;;;;41.73;10.17;;;;;;;;;;4460412;32;20259;-55
2022/04/01 06:20:49;;;;;;;78.53;12.13;;;;;;;;;;4452753;32;20668;-55
2022/04/01 06:23:49;;;;;;;54.57;12.13;;;;;;;;;;4451140;32;20251;-55
2022/04/01 06:26:15;;;;;;;47.40;10.67;;;;;;;;;;4442552;32;20262;-55
2022/04/01 06:28:50;;;;;;;57.83;12.00;;;;;;;;;;4457399;32;20723;-55
2022/04/01 06:31:21;;;;;;;38.43;11.73;;;;;;;;;;4457352;32;20366;-56
2022/04/01 06:33:55;;;;;;;55.77;12.53;;;;;;;;;;4453650;32;20607;-55
2022/04/01 06:36:29;;;;;;;43.23;11.90;;;;;;;;;;4449823;32;20314;-55
2022/04/01 06:39:05;;;;;;;68.43;13.40;;;;;;;;;;4459698;32;20246;-54
2022/04/01 06:41:39;;;;;;;56.63;12.13;;;;;;;;;;4463886;32;20345;-55
2022/04/01 06:44:05;;;;;;;46.77;11.23;;;;;;;;;;4455588;32;20221;-54
2022/04/01 06:46:30;;;;;;;45.87;11.63;;;;;;;;;;4448496;32;20667;-55
2022/04/01 06:48:55;;;;;;;62.13;12.63;;;;;;;;;;4451142;32;20553;-55
2022/04/01 06:51:21;;;;;;;65.43;12.87;;;;;;;;;;4448044;32;20288;-55
2022/04/01 06:53:46;;;;;;;60.53;14.03;;;;;;;;;;4457300;32;20256;-57
2022/04/01 06:56:12;;;;;;;62.40;12.17;;;;;;;;;;4462778;32;20353;-57
2022/04/01 06:58:37;;;;;;;48.87;11.57;;;;;;;;;;4453930;32;20254;-56
2022/04/01 07:01:03;;;;;;;53.43;12.57;;;;;;;;;;4450074;32;20333;-55
2022/04/01 07:03:30;;;;;;;58.07;10.87;;;;;;;;;;4456621;32;20379;-56
2022/04/01 07:05:56;;;;;;;56.53;11.65;;;;;;;;;;4456833;32;20750;-55
2022/04/01 07:08:21;;;;;;;55.47;11.77;;;;;;;;;;4454153;32;20228;-55
2022/04/01 07:10:48;;;;;;;50.10;11.93;;;;;;;;;;4458868;32;20302;-57
2022/04/01 07:13:14;;;;;;;55.10;13.50;;;;;;;;;;4447827;32;20358;-56
2022/04/01 07:15:40;;;;;;;64.93;14.57;;;;;;;;;;4458166;32;20301;-55
2022/04/01 07:18:06;;;;;;;42.67;10.00;;;;;;;;;;4452526;32;20768;-55
2022/04/01 07:20:32;;;;;;;64.13;12.10;;;;;;;;;;4454461;32;20751;-56
2022/04/01 07:22:57;;;;;;;56.33;12.23;;;;;;;;;;4451112;32;20228;-55
2022/04/01 07:25:24;;;;;;;67.17;11.23;;;;;;;;;;4454498;32;20325;-56
2022/04/01 07:27:54;;;;;;;60.63;13.07;;;;;;;;;;4448374;32;20221;-56
2022/04/01 07:30:20;;;;;;;60.83;12.77;;;;;;;;;;4450863;32;20293;-56
2022/04/01 07:32:47;;;;;;;54.73;12.30;;;;;;;;;;4461787;32;20691;-57
2022/04/01 07:35:14;;;;;;;41.47;9.97;;;;;;;;;;4456109;32;20473;-57
2022/04/01 07:37:42;;;;;;;54.53;12.17;;;;;;;;;;4457372;32;20213;-58
2022/04/01 07:40:09;;;;;;;41.93;11.43;;;;;;;;;;4447930;32;20212;-57
2022/04/01 07:42:36;;;;;;;54.53;11.60;;;;;;;;;;4447352;32;20267;-57
2022/04/01 07:45:03;;;;;;;88.60;11.33;;;;;;;;;;4450340;32;20291;-58
2022/04/01 07:47:31;;;;;;;46.67;9.43;;;;;;;;;;4451530;32;20534;-57
2022/04/01 07:49:57;;;;;;;63.90;12.23;;;;;;;;;;4449805;32;20288;-57
2022/04/01 07:52:22;;;;;;;66.90;11.10;;;;;;;;;;4455810;32;20224;-57
2022/04/01 07:54:49;;;;;;;81.93;11.85;;;;;;;;;;4448543;32;20342;-58
2022/04/01 07:57:17;;;;;;;56.28;11.85;;;;;;;;;;4458694;32;20292;-57
2022/04/01 07:59:43;;;;;;;87.05;12.52;;;;;;;;;;4458418;32;20672;-57
2022/04/01 08:02:09;;;;;;;70.43;12.87;;;;;;;;;;4451449;32;20219;-56
2022/04/01 08:04:34;;;;;;;57.60;11.55;;;;;;;;;;4446502;32;20293;-57
2022/04/01 08:07:00;;;;;;;74.43;11.95;;;;;;;;;;4454719;32;20419;-58
2022/04/01 08:09:26;;;;;;;64.13;12.17;;;;;;;;;;4448456;32;20316;-57
2022/04/01 08:11:53;;;;;;;61.57;11.80;;;;;;;;;;4446617;32;20240;-57
2022/04/01 08:14:18;;;;;;;67.43;14.07;;;;;;;;;;4453886;32;20841;-57
2022/04/01 08:16:45;;;;;;;77.70;13.43;;;;;;;;;;4445727;32;20254;-57
2022/04/01 08:19:11;;;;;;;72.23;13.63;;;;;;;;;;4458380;32;21380;-58
2022/04/01 08:21:37;;;;;;;66.97;15.87;;;;;;;;;;4456291;32;20377;-58
2022/04/01 08:24:02;;;;;;;59.47;12.50;;;;;;;;;;4450298;32;20243;-57
2022/04/01 08:26:28;;;;;;;53.45;13.80;;;;;;;;;;4444772;32;20254;-56
2022/04/01 08:28:54;;;;;;;62.93;12.80;;;;;;;;;;4448238;32;20304;-57
2022/04/01 08:31:20;;;;;;;78.40;13.23;;;;;;;;;;4446839;32;20225;-58
2022/04/01 08:33:47;;;;;;;68.62;13.20;;;;;;;;;;4461200;32;20353;-58
2022/04/01 08:36:14;;;;;;;56.92;12.07;;;;;;;;;;4445445;32;20392;-57
2022/04/01 08:38:40;;;;;;;73.97;14.02;;;;;;;;;;4450609;32;20220;-57
2022/04/01 08:41:06;;;;;;;68.25;13.60;;;;;;;;;;4451499;32;20324;-57
2022/04/01 08:43:34;;;;;;;68.97;13.15;;;;;;;;;;4454653;32;20228;-55
2022/04/01 08:46:03;;;;;;;66.78;12.35;;;;;;;;;;4449063;32;20265;-55
2022/04/01 08:48:29;;;;;;;90.40;14.82;;;;;;;;;;4453521;32;20663;-55
2022/04/01 08:50:55;;;;;;;67.82;15.98;;;;;;;;;;4456444;32;20259;-56
2022/04/01 08:53:21;;;;;;;74.37;13.48;;;;;;;;;;4461033;32;20321;-56
2022/04/01 08:55:49;;;;;;;64.20;14.13;;;;;;;;;;4447518;32;20270;-55
2022/04/01 08:58:19;;;;;;;55.83;12.45;;;;;;;;;;4448936;32;20674;-56
2022/04/01 09:00:45;;;;;;;73.50;14.00;;;;;;;;;;4447366;32;20740;-55
2022/04/01 09:03:12;;;;;;;71.22;14.02;;;;;;;;;;4452968;32;20330;-55
2022/04/01 09:05:44;;;;;;;69.40;15.25;;;;;;;;;;4452476;32;20201;-54
2022/04/01 09:08:10;;;;;;;55.88;12.13;;;;;;;;;;4445877;32;20216;-55
2022/04/01 09:10:55;;;;;;;90.80;14.40;;;;;;;;;;4455223;32;20588;-55
2022/04/01 09:13:23;;;;;;;66.68;11.50;;;;;;;;;;4456912;32;20986;-54
2022/04/01 09:15:48;;;;;;;91.20;14.10;;;;;;;;;;4457311;32;20197;-55
2022/04/01 09:18:47;;;;;;;84.82;13.27;;;;;;;;;;4450153;32;20282;-57
2022/04/01 09:21:14;;;;;;;60.88;13.20;;;;;;;;;;4452950;32;20221;-56
2022/04/01 09:23:44;;;;;;;66.68;12.93;;;;;;;;;;4447294;32;20267;-55
2022/04/01 09:26:10;;;;;;;49.43;11.33;;;;;;;;;;4461163;32;20281;-54
2022/04/01 09:28:41;;;;;;;70.82;11.95;;;;;;;;;;4462622;32;20311;-56
2022/04/01 09:31:12;;;;;;;54.55;12.63;;;;;;;;;;4456851;32;20355;-55
2022/04/01 09:33:43;;;;;;;83.10;13.95;;;;;;;;;;4457275;32;20404;-55
2022/04/01 09:36:19;;;;;;;72.07;13.07;;;;;;;;;;4458280;32;20357;-55
2022/04/01 09:38:56;;;;;;;54.90;13.40;;;;;;;;;;4454860;32;20225;-55
2022/04/01 09:41:31;;;;;;;77.60;13.52;;;;;;;;;;4461853;32;20224;-55
2022/04/01 09:44:07;;;;;;;66.97;11.55;;;;;;;;;;4452087;32;20215;-55
2022/04/01 09:46:34;;;;;;;71.75;12.30;;;;;;;;;;4458300;32;20283;-55
2022/04/01 09:49:00;;;;;;;46.42;10.15;;;;;;;;;;4457863;32;20276;-56
2022/04/01 09:51:31;;;;;;;59.00;11.32;;;;;;;;;;4453059;32;20322;-56
2022/04/01 09:54:02;;;;;;;43.58;9.80;;;;;;;;;;4449025;32;20609;-55
2022/04/01 09:56:45;;;;;;;62.58;10.15;;;;;;;;;;4456435;32;20224;-55
2022/04/01 09:59:13;;;;;;;55.55;11.85;;;;;;;;;;4459402;32;20307;-55
2022/04/01 10:01:40;;;;;;;54.08;11.90;;;;;;;;;;4458951;32;20200;-55
2022/04/01 10:04:06;;;;;;;58.70;12.57;;;;;;;;;;4456925;32;20937;-57
2022/04/01 10:06:33;;;;;;;82.93;14.35;;;;;;;;;;4458286;32;20228;-54
2022/04/01 10:09:05;;;;;;;63.92;12.90;;;;;;;;;;4456597;32;20246;-56
2022/04/01 10:11:31;;;;;;;57.05;12.52;;;;;;;;;;4446858;32;20326;-57
2022/04/01 10:14:03;;;;;;;59.05;10.02;;;;;;;;;;4462900;32;20611;-57
2022/04/01 10:16:33;;;;;;;63.05;11.35;;;;;;;;;;4453594;32;20256;-56
2022/04/01 10:19:04;;;;;;;50.58;13.57;;;;;;;;;;4451457;32;20216;-57
2022/04/01 10:21:30;;;;;;;60.58;12.68;;;;;;;;;;4452732;32;20231;-56
2022/04/01 10:24:06;;;;;;;72.68;12.88;;;;;;;;;;4462959;32;20315;-56
2022/04/01 10:26:34;;;;;;;47.50;12.37;;;;;;;;;;4460439;32;20356;-58
2022/04/01 10:29:02;;;;;;;62.53;10.63;;;;;;;;;;4447166;32;20599;-57
2022/04/01 10:31:27;;;;;;;62.00;11.07;;;;;;;;;;4455521;32;20209;-57
2022/04/01 10:33:53;;;;;;;49.75;11.27;;;;;;;;;;4462141;32;20376;-56
2022/04/01 10:36:24;;;;;;;64.05;13.10;;;;;;;;;;4448430;32;20288;-56
2022/04/01 10:39:05;;;;;;;45.60;11.23;;;;;;;;;;4461206;32;20212;-55
2022/04/01 10:41:32;;;;;;;52.65;11.95;;;;;;;;;;4457718;32;20368;-55
2022/04/01 10:44:00;;;;;;;63.58;12.32;;;;;;;;;;4458526;32;20304;-54
2022/04/01 10:46:27;;;;;;;57.88;11.05;;;;;;;;;;4459775;32;20725;-55
2022/04/01 10:52:11;;;;;;;57.45;10.75;;;;;;;;;;4450742;32;20383;-55
2022/04/01 10:54:43;;;;;;;50.55;11.18;;;;;;;;;;4453077;32;20663;-54
2022/04/01 10:57:35;;;;;;;75.22;12.95;;;;;;;;;;4461303;32;20216;-55
2022/04/01 11:00:08;;;;;;;66.57;11.73;;;;;;;;;;4454502;32;20307;-55
2022/04/01 11:02:34;;;;;;;45.97;11.27;;;;;;;;;;4449336;32;20224;-54
2022/04/01 11:05:19;;;;;;;59.85;12.63;;;;;;;;;;4447588;32;20351;-55
2022/04/01 11:07:45;;;;;;;58.13;11.65;;;;;;;;;;4453720;32;20231;-56
2022/04/01 11:10:23;;;;;;;56.17;11.02;;;;;;;;;;4452308;32;20335;-55
2022/04/01 11:12:52;;;;;;;58.42;13.55;;;;;;;;;;4457067;32;20661;-54
2022/04/01 11:15:25;;;;;;;42.47;9.43;;;;;;;;;;4458519;32;20299;-54
2022/04/01 11:17:57;;;;;;;47.65;11.70;;;;;;;;;;4458102;32;20493;-56
2022/04/01 11:20:28;;;;;;;26.27;6.95;;;;;;;;;;4451498;32;20701;-56
2022/04/01 11:22:54;;;;;;;43.97;9.02;;;;;;;;;;4459529;32;20263;-55
2022/04/01 11:25:22;;;;;;;33.17;8.75;;;;;;;;;;4448858;32;20292;-55
2022/04/01 11:28:10;;;;;;;32.50;7.40;;;;;;;;;;4446436;32;20639;-55
2022/04/01 11:30:38;;;;;;;29.45;6.25;;;;;;;;;;4451881;32;20329;-56
2022/04/01 11:33:18;;;;;;;43.85;8.65;;;;;;;;;;4452244;32;20773;-55
2022/04/01 11:35:47;;;;;;;18.95;5.80;;;;;;;;;;4451021;32;20751;-55
2022/04/01 11:38:18;;;;;;;41.53;8.85;;;;;;;;;;4446138;32;20313;-56
2022/04/01 11:40:46;;;;;;;25.40;5.70;;;;;;;;;;4448356;32;20271;-56
2022/04/01 11:43:14;;;;;;;12.52;3.42;;;;;;;;;;4446459;32;20244;-56
2022/04/01 11:45:44;;;;;;;11.52;3.62;;;;;;;;;;4450945;32;20212;-57
2022/04/01 11:48:19;;;;;;;10.18;3.28;;;;;;;;;;4448658;32;20232;-56
2022/04/01 11:50:48;;;;;;;9.10;2.83;;;;;;;;;;4447559;32;20228;-57
2022/04/01 11:53:43;;;;;;;14.38;2.72;;;;;;;;;;4448768;32;20750;-57
2022/04/01 11:56:10;;;;;;;12.90;3.45;;;;;;;;;;4448697;32;20188;-56
2022/04/01 11:59:00;;;;;;;20.75;3.47;;;;;;;;;;4448833;32;20376;-57
2022/04/01 12:01:54;;;;;;;23.42;4.32;;;;;;;;;;4439814;32;20256;-57
2022/04/01 12:04:33;;;;;;;14.25;4.60;;;;;;;;;;4450109;32;20509;-55
2022/04/01 12:09:44;;;;;;;22.85;6.85;;;;;;;;;;4449663;32;20302;-55
2022/04/01 12:12:10;;;;;;;34.50;6.43;;;;;;;;;;4448467;32;20216;-56
2022/04/01 12:14:38;;;;;;;39.17;8.02;;;;;;;;;;4448769;32;20298;-56
2022/04/01 12:17:08;;;;;;;42.45;8.93;;;;;;;;;;4448541;32;20275;-55
2022/04/01 12:19:34;;;;;;;49.28;8.75;;;;;;;;;;4448649;32;20263;-56
2022/04/01 12:22:00;;;;;;;33.50;8.05;;;;;;;;;;4447297;32;20667;-55
2022/04/01 12:24:27;;;;;;;35.97;8.65;;;;;;;;;;4448551;32;20322;-55
2022/04/01 12:26:53;;;;;;;50.90;8.60;;;;;;;;;;4448580;32;20192;-54
2022/04/01 12:29:24;;;;;;;51.63;11.10;;;;;;;;;;4448900;32;20682;-55
2022/04/01 12:31:52;;;;;;;50.33;9.75;;;;;;;;;;4448231;32;20196;-56
2022/04/01 12:34:18;;;;;;;44.65;8.57;;;;;;;;;;4447387;32;20539;-56
2022/04/01 12:36:54;;;;;;;34.67;8.23;;;;;;;;;;4448304;32;20279;-56
2022/04/01 12:39:20;;;;;;;39.42;9.27;;;;;;;;;;4448660;32;20254;-56
2022/04/01 12:41:55;;;;;;;32.67;8.85;;;;;;;;;;4447934;32;20629;-56
2022/04/01 12:44:29;;;;;;;50.12;9.95;;;;;;;;;;4447659;32;20259;-56
2022/04/01 12:46:58;;;;;;;62.30;12.15;;;;;;;;;;4449333;32;20200;-55
2022/04/01 12:49:25;;;;;;;59.20;13.32;;;;;;;;;;4451863;32;20322;-55
2022/04/01 12:51:55;;;;;;;61.83;17.30;;;;;;;;;;4451355;32;20672;-56
2022/04/01 12:54:25;;;;;;;45.60;12.40;;;;;;;;;;4451652;32;20254;-56
2022/04/01 12:56:51;;;;;;;33.00;11.40;;;;;;;;;;4451907;32;20200;-55
2022/04/01 12:59:19;;;;;;;61.35;12.48;;;;;;;;;;4467396;32;20216;-55
2022/04/01 13:01:56;;;;;;;54.55;12.88;;;;;;;;;;4466850;32;20200;-55
2022/04/01 13:04:22;;;;;;;52.17;13.25;;;;;;;;;;4465554;32;20208;-55
2022/04/01 13:07:14;;;;;;;76.28;21.42;;;;;;;;;;4450928;32;20231;-54
2022/04/01 13:09:49;;;;;;;47.10;12.20;;;;;;;;;;4451487;32;20223;-55
2022/04/01 13:12:16;;;;;;;47.55;15.60;;;;;;;;;;4452429;32;20561;-55
2022/04/01 13:14:42;;;;;;;43.97;11.60;;;;;;;;;;4466865;32;20235;-55
2022/04/01 13:17:15;;;;;;;45.03;13.38;;;;;;;;;;4466352;32;20207;-55
2022/04/01 13:19:44;;;;;;;47.13;11.98;;;;;;;;;;4463653;32;20296;-55
2022/04/01 13:22:11;;;;;;;39.65;11.95;;;;;;;;;;4450943;32;20216;-57
2022/04/01 13:24:42;;;;;;;48.03;11.48;;;;;;;;;;4450070;32;20628;-57
2022/04/01 13:27:13;;;;;;;50.75;11.80;;;;;;;;;;4449658;32;20259;-57
2022/04/01 13:29:39;;;;;;;38.05;14.95;;;;;;;;;;4451419;32;20216;-56
2022/04/01 13:32:06;;;;;;;53.35;19.90;;;;;;;;;;4451114;32;20228;-56
2022/04/01 13:34:32;;;;;;;46.10;14.32;;;;;;;;;;4451167;32;20291;-55
2022/04/01 13:36:58;;;;;;;49.23;11.47;;;;;;;;;;4450898;32;20196;-57
2022/04/01 13:39:24;;;;;;;14.80;4.65;;;;;;;;;;4450982;32;20375;-56
2022/04/01 13:41:51;;;;;;;11.73;2.62;;;;;;;;;;4449386;32;20295;-57
2022/04/01 13:44:17;;;;;;;10.45;2.92;;;;;;;;;;4450941;32;20560;-57
2022/04/01 13:46:43;;;;;;;11.73;2.87;;;;;;;;;;4450403;32;20204;-57
2022/04/01 13:49:08;;;;;;;5.40;2.10;;;;;;;;;;4450397;32;20316;-57
2022/04/01 13:51:34;;;;;;;6.50;3.75;;;;;;;;;;4450145;32;20604;-57
2022/04/01 13:54:00;;;;;;;13.18;3.75;;;;;;;;;;4450300;32;20224;-57
2022/04/01 13:56:27;;;;;;;16.48;4.93;;;;;;;;;;4449975;32;20212;-56
2022/04/01 13:58:53;;;;;;;14.33;4.93;;;;;;;;;;4463460;32;20295;-57
2022/04/01 14:01:19;;;;;;;14.80;4.65;;;;;;;;;;4465015;32;20284;-56
2022/04/01 14:03:44;;;;;;;16.07;3.00;;;;;;;;;;4457481;32;20228;-56
2022/04/01 14:06:10;;;;;;;9.63;3.65;;;;;;;;;;4451016;32;20695;-56
2022/04/01 14:08:36;;;;;;;14.30;4.03;;;;;;;;;;4449919;32;20224;-56
2022/04/01 14:11:03;;;;;;;20.93;6.10;;;;;;;;;;4450071;32;20342;-57
2022/04/01 14:13:29;;;;;;;14.23;5.80;;;;;;;;;;4459164;32;20328;-56
2022/04/01 14:15:54;;;;;;;9.77;4.90;;;;;;;;;;4465613;32;20274;-55
2022/04/01 14:18:20;;;;;;;20.10;6.83;;;;;;;;;;4465157;32;20241;-57
2022/04/01 14:20:46;;;;;;;26.60;13.43;;;;;;;;;;4453199;32;20285;-56
2022/04/01 14:23:13;;;;;;;12.73;7.80;;;;;;;;;;4449105;32;20259;-56
2022/04/01 14:25:45;;;;;;;13.87;6.97;;;;;;;;;;4449112;32;20268;-57
2022/04/01 14:28:11;;;;;;;27.37;15.17;;;;;;;;;;4448098;32;20262;-57
2022/04/01 14:30:37;;;;;;;27.07;12.67;;;;;;;;;;4449482;32;20298;-56
2022/04/01 14:33:03;;;;;;;29.30;15.40;;;;;;;;;;4460049;32;20220;-56
2022/04/01 14:35:30;;;;;;;24.50;14.83;;;;;;;;;;4450583;32;20729;-56
2022/04/01 14:37:57;;;;;;;34.30;12.67;;;;;;;;;;4449330;32;20255;-56
2022/04/01 14:40:23;;;;;;;29.00;11.57;;;;;;;;;;4447716;32;20398;-56
2022/04/01 14:42:50;;;;;;;34.67;18.00;;;;;;;;;;4446743;32;20334;-56
2022/04/01 14:45:15;;;;;;;24.50;10.63;;;;;;;;;;4449482;32;20823;-56